CSCL Nagoya — VRDG2 — position and weather

sailwx.info

Track history (hours):
 
Tides and Currents Weather Stations Pressure Air Temp Water Temp Dewpoint Dewpoint Depression Visibility Wind Speed Wind Dir Waves Ship Positions

CSCL Nagoya

Last reported at 2017-Nov-18 10:05 UTC. Time now 2017-Nov-21 12:17 UTC.
Position N 34°33' E 134°45'.

Length 145 m; draft 7.8 m.

Type: Cargo ship. MMSI: 477136700.

Date/timePositionNaut miles runAvg speedWind from/ knotsBaromVisibWave heightAir tempDewpointWater temp
2017-Nov-18 10:05N 34°33' E 134°45'317.7
2017-Nov-18 09:55N 34°34' E 134°48'718.1
2017-Nov-18 09:30N 34°37' E 134°57'815.4
2017-Nov-18 09:00N 34°35' E 135°06'816.4
2017-Nov-18 08:30N 34°36' E 135°16'714.2
2017-Nov-18 08:00N 34°38' E 135°24'1 2.7
2017-Nov-18 07:27N 34°39' E 135°26'0 0.0
2017-Nov-18 06:57N 34°39' E 135°26'0 0.0
2017-Nov-18 06:27N 34°39' E 135°26'0 0.0
2017-Nov-18 05:51N 34°39' E 135°26'0 0.0
2017-Nov-18 05:27N 34°39' E 135°26'0 0.0
2017-Nov-18 04:45N 34°39' E 135°26'0 0.0
2017-Nov-18 04:27N 34°39' E 135°26'0 0.0
2017-Nov-18 03:57N 34°39' E 135°26'0 0.0
2017-Nov-18 03:09N 34°39' E 135°26'0 0.0
2017-Nov-18 02:57N 34°39' E 135°26'0 0.0
2017-Nov-18 02:15N 34°39' E 135°26'0 0.0
2017-Nov-18 01:57N 34°39' E 135°26'0 0.0
2017-Nov-18 01:27N 34°39' E 135°26'0 0.0
2017-Nov-18 00:57N 34°39' E 135°26'0 0.0
2017-Nov-18 00:27N 34°39' E 135°26'0 0.1
2017-Nov-17 23:57N 34°39' E 135°26'0 0.1
2017-Nov-17 23:27N 34°39' E 135°26'0 0.0
2017-Nov-17 22:57N 34°39' E 135°26'0 0.3
2017-Nov-17 22:30N 34°39' E 135°26'4 8.1
2017-Nov-17 22:00N 34°37' E 135°21'510.0
2017-Nov-17 21:30N 34°39' E 135°16'2 2.8
2017-Nov-17 20:55N 34°39' E 135°14'0 0.0
2017-Nov-17 20:25N 34°39' E 135°14'0 0.0
2017-Nov-17 19:55N 34°39' E 135°14'0 0.0
2017-Nov-17 19:19N 34°39' E 135°14'0 0.0
2017-Nov-17 18:55N 34°39' E 135°14'0 0.0
2017-Nov-17 18:25N 34°39' E 135°14'0 0.0
2017-Nov-17 17:55N 34°39' E 135°14'0 0.0
2017-Nov-17 17:25N 34°39' E 135°14'0 0.0
2017-Nov-17 16:55N 34°40' E 135°14'0 0.0
2017-Nov-17 16:25N 34°39' E 135°14'0 0.0
2017-Nov-17 15:55N 34°39' E 135°14'0 0.0
2017-Nov-17 15:25N 34°39' E 135°14'0 0.0
2017-Nov-17 14:55N 34°40' E 135°14'0 0.0
2017-Nov-17 14:19N 34°39' E 135°14'0 0.0
2017-Nov-17 13:55N 34°39' E 135°14'0 0.0
2017-Nov-17 13:25N 34°39' E 135°14'0 0.0
2017-Nov-17 12:55N 34°39' E 135°14'0 0.0
2017-Nov-17 12:25N 34°39' E 135°14'0 0.0
2017-Nov-17 11:55N 34°39' E 135°14'0 0.0
2017-Nov-17 11:19N 34°39' E 135°14'0 0.0
2017-Nov-17 10:55N 34°39' E 135°14'0 0.0
2017-Nov-17 10:25N 34°39' E 135°14'0 0.0
2017-Nov-17 09:55N 34°39' E 135°14'0 0.0
2017-Nov-17 09:13N 34°40' E 135°14'0 0.0
2017-Nov-17 08:55N 34°40' E 135°14'0 0.0
2017-Nov-17 08:25N 34°39' E 135°14'0 0.0
2017-Nov-17 07:55N 34°39' E 135°14'0 0.0
2017-Nov-17 07:25N 34°39' E 135°14'0 0.0
2017-Nov-17 06:43N 34°39' E 135°14'0 0.0
2017-Nov-17 06:19N 34°39' E 135°14'0 0.0
2017-Nov-17 05:55N 34°40' E 135°14'0 0.0
2017-Nov-17 05:30N 34°39' E 135°14'1 1.6
2017-Nov-17 05:00N 34°40' E 135°15'4 7.3
2017-Nov-17 04:30N 34°36' E 135°15'713.3
2017-Nov-17 04:00N 34°34' E 135°07'814.8
2017-Nov-17 03:30N 34°37' E 134°58'67215.4
2017-Nov-15 07:53N 31°06' E 122°19'714.5
2017-Nov-15 07:25N 31°09' E 122°13'614.7
2017-Nov-15 07:00N 31°13' E 122°07'714.9
2017-Nov-15 06:30N 31°15' E 121°58'714.9
2017-Nov-15 06:00N 31°17' E 121°50'714.2
2017-Nov-15 05:30N 31°19' E 121°42'611.5
2017-Nov-15 05:00N 31°22' E 121°36'1 1.1
2017-Nov-15 04:29N 31°22' E 121°36'0 0.0
2017-Nov-15 03:59N 31°22' E 121°36'0 0.0
2017-Nov-15 03:29N 31°22' E 121°36'0 0.0
2017-Nov-15 02:59N 31°22' E 121°36'0 0.0
2017-Nov-15 02:29N 31°22' E 121°36'0 0.0
2017-Nov-15 01:59N 31°22' E 121°36'0 0.0
2017-Nov-15 01:29N 31°22' E 121°36'0 0.0
2017-Nov-15 00:59N 31°22' E 121°36'0 0.0
2017-Nov-15 00:29N 31°22' E 121°36'0 0.0
2017-Nov-14 23:59N 31°22' E 121°36'0 0.0
2017-Nov-14 23:29N 31°22' E 121°36'0 0.0
2017-Nov-14 22:59N 31°22' E 121°36'0 0.0
2017-Nov-14 22:29N 31°22' E 121°36'0 0.0
2017-Nov-14 21:59N 31°22' E 121°36'0 0.0
2017-Nov-14 21:29N 31°22' E 121°36'0 0.0
2017-Nov-14 20:59N 31°22' E 121°36'0 0.0
2017-Nov-14 20:29N 31°22' E 121°36'0 0.0
2017-Nov-14 19:59N 31°22' E 121°36'0 0.0
2017-Nov-14 19:29N 31°22' E 121°36'0 0.0
2017-Nov-14 18:59N 31°22' E 121°36'0 0.0
2017-Nov-14 18:29N 31°22' E 121°36'0 0.0
2017-Nov-14 17:59N 31°22' E 121°36'0 0.0
2017-Nov-14 17:30N 31°22' E 121°36'1 1.3
2017-Nov-14 17:00N 31°22' E 121°36'3 7.0
2017-Nov-14 16:30N 31°21' E 121°40'4 9.0
2017-Nov-14 16:00N 31°19' E 121°45'510.3
2017-Nov-14 15:30N 31°17' E 121°51'510.5
2017-Nov-14 15:00N 31°15' E 121°56'510.5
2017-Nov-14 14:30N 31°14' E 122°02'511.0
2017-Nov-14 14:00N 31°12' E 122°08'814.1
2017-Nov-14 13:25N 31°07' E 122°16'  
2017-Nov-11 16:43N 34°54' E 139°26'316.6
2017-Nov-11 16:30N 34°56' E 139°29'816.7
2017-Nov-11 16:00N 35°02' E 139°36'817.0
2017-Nov-11 15:30N 35°08' E 139°44'714.6
2017-Nov-11 15:00N 35°15' E 139°46'612.7
2017-Nov-11 14:30N 35°20' E 139°42'713.4
2017-Nov-11 14:00N 35°27' E 139°41'0 0.8
2017-Nov-11 13:29N 35°27' E 139°41'0 0.0
2017-Nov-11 12:59N 35°27' E 139°41'0 0.0
2017-Nov-11 12:29N 35°27' E 139°41'0 0.0
2017-Nov-11 11:59N 35°27' E 139°41'0 0.0
2017-Nov-11 11:29N 35°27' E 139°41'0 0.0
2017-Nov-11 10:59N 35°27' E 139°41'0 0.0
2017-Nov-11 10:29N 35°27' E 139°41'0 0.0
2017-Nov-11 10:00N 35°27' E 139°41'1 2.6
2017-Nov-11 09:30N 35°26' E 139°42'3 5.4
2017-Nov-11 09:00N 35°27' E 139°46'4 8.4
2017-Nov-11 08:30N 35°29' E 139°50'6 9.6
2017-Nov-11 07:55N 35°34' E 139°48'2 3.8
2017-Nov-11 07:29N 35°36' E 139°48'0 0.1
2017-Nov-11 06:57N 35°36' E 139°48'0 0.0
2017-Nov-11 06:30N 35°36' E 139°48'0 0.0
2017-Nov-11 05:33N 35°36' E 139°48'0 0.0
2017-Nov-11 05:30N 35°36' E 139°48'0 0.0
2017-Nov-11 05:00N 35°36' E 139°48'0 0.0
2017-Nov-11 03:18N 35°36' E 139°48'0 0.0
2017-Nov-11 02:54N 35°36' E 139°48'0 0.0
2017-Nov-11 02:12N 35°36' E 139°48'0 0.0
2017-Nov-11 01:00N 35°36' E 139°48'0 0.0
2017-Nov-11 00:30N 35°36' E 139°48'0 0.0
2017-Nov-10 22:18N 35°36' E 139°48'0 0.0
2017-Nov-10 21:48N 35°36' E 139°48'0 0.0
2017-Nov-10 18:06N 35°36' E 139°48'0 0.0
2017-Nov-10 17:54N 35°36' E 139°48'0 0.0
2017-Nov-10 17:24N 35°36' E 139°48'0 0.0
2017-Nov-10 16:57N 35°36' E 139°48'0 0.0
2017-Nov-10 16:30N 35°36' E 139°48'0 0.0
2017-Nov-10 15:57N 35°36' E 139°48'0 1.0
2017-Nov-10 15:30N 35°36' E 139°47'611.1
2017-Nov-10 15:00N 35°32' E 139°52'814.9
2017-Nov-10 14:30N 35°25' E 139°47'713.6
2017-Nov-10 14:00N 35°19' E 139°44'612.8
2017-Nov-10 13:30N 35°13' E 139°47'815.8
2017-Nov-10 13:00N 35°06' E 139°43'917.4
2017-Nov-10 12:30N 35°00' E 139°35'917.8
2017-Nov-10 12:00N 34°54' E 139°27'  
Track history (hours):
 
Tides and Currents Weather Stations Pressure Air Temp Water Temp Dewpoint Dewpoint Depression Visibility Wind Speed Wind Dir Waves Ship Positions

CSCL Nagoya

Last reported at 2017-Nov-18 10:05 UTC. Time now 2017-Nov-21 12:17 UTC.
Position N 34°33' E 134°45'.

Length 145 m; draft 7.8 m.

Type: Cargo ship. MMSI: 477136700.

Date/timePositionNaut miles runAvg speedWind from/ knotsBaromVisibWave heightAir tempDewpointWater temp
2017-Nov-18 10:05N 34°33' E 134°45'317.7
2017-Nov-18 09:55N 34°34' E 134°48'718.1
2017-Nov-18 09:30N 34°37' E 134°57'815.4
2017-Nov-18 09:00N 34°35' E 135°06'816.4
2017-Nov-18 08:30N 34°36' E 135°16'714.2
2017-Nov-18 08:00N 34°38' E 135°24'1 2.7
2017-Nov-18 07:27N 34°39' E 135°26'0 0.0
2017-Nov-18 06:57N 34°39' E 135°26'0 0.0
2017-Nov-18 06:27N 34°39' E 135°26'0 0.0
2017-Nov-18 05:51N 34°39' E 135°26'0 0.0
2017-Nov-18 05:27N 34°39' E 135°26'0 0.0
2017-Nov-18 04:45N 34°39' E 135°26'0 0.0
2017-Nov-18 04:27N 34°39' E 135°26'0 0.0
2017-Nov-18 03:57N 34°39' E 135°26'0 0.0
2017-Nov-18 03:09N 34°39' E 135°26'0 0.0
2017-Nov-18 02:57N 34°39' E 135°26'0 0.0
2017-Nov-18 02:15N 34°39' E 135°26'0 0.0
2017-Nov-18 01:57N 34°39' E 135°26'0 0.0
2017-Nov-18 01:27N 34°39' E 135°26'0 0.0
2017-Nov-18 00:57N 34°39' E 135°26'0 0.0
2017-Nov-18 00:27N 34°39' E 135°26'0 0.1
2017-Nov-17 23:57N 34°39' E 135°26'0 0.1
2017-Nov-17 23:27N 34°39' E 135°26'0 0.0
2017-Nov-17 22:57N 34°39' E 135°26'0 0.3
2017-Nov-17 22:30N 34°39' E 135°26'4 8.1
2017-Nov-17 22:00N 34°37' E 135°21'510.0
2017-Nov-17 21:30N 34°39' E 135°16'2 2.8
2017-Nov-17 20:55N 34°39' E 135°14'0 0.0
2017-Nov-17 20:25N 34°39' E 135°14'0 0.0
2017-Nov-17 19:55N 34°39' E 135°14'0 0.0
2017-Nov-17 19:19N 34°39' E 135°14'0 0.0
2017-Nov-17 18:55N 34°39' E 135°14'0 0.0
2017-Nov-17 18:25N 34°39' E 135°14'0 0.0
2017-Nov-17 17:55N 34°39' E 135°14'0 0.0
2017-Nov-17 17:25N 34°39' E 135°14'0 0.0
2017-Nov-17 16:55N 34°40' E 135°14'0 0.0
2017-Nov-17 16:25N 34°39' E 135°14'0 0.0
2017-Nov-17 15:55N 34°39' E 135°14'0 0.0
2017-Nov-17 15:25N 34°39' E 135°14'0 0.0
2017-Nov-17 14:55N 34°40' E 135°14'0 0.0
2017-Nov-17 14:19N 34°39' E 135°14'0 0.0
2017-Nov-17 13:55N 34°39' E 135°14'0 0.0
2017-Nov-17 13:25N 34°39' E 135°14'0 0.0
2017-Nov-17 12:55N 34°39' E 135°14'0 0.0
2017-Nov-17 12:25N 34°39' E 135°14'0 0.0
2017-Nov-17 11:55N 34°39' E 135°14'0 0.0
2017-Nov-17 11:19N 34°39' E 135°14'0 0.0
2017-Nov-17 10:55N 34°39' E 135°14'0 0.0
2017-Nov-17 10:25N 34°39' E 135°14'0 0.0
2017-Nov-17 09:55N 34°39' E 135°14'0 0.0
2017-Nov-17 09:13N 34°40' E 135°14'0 0.0
2017-Nov-17 08:55N 34°40' E 135°14'0 0.0
2017-Nov-17 08:25N 34°39' E 135°14'0 0.0
2017-Nov-17 07:55N 34°39' E 135°14'0 0.0
2017-Nov-17 07:25N 34°39' E 135°14'0 0.0
2017-Nov-17 06:43N 34°39' E 135°14'0 0.0
2017-Nov-17 06:19N 34°39' E 135°14'0 0.0
2017-Nov-17 05:55N 34°40' E 135°14'0 0.0
2017-Nov-17 05:30N 34°39' E 135°14'1 1.6
2017-Nov-17 05:00N 34°40' E 135°15'4 7.3
2017-Nov-17 04:30N 34°36' E 135°15'713.3
2017-Nov-17 04:00N 34°34' E 135°07'814.8
2017-Nov-17 03:30N 34°37' E 134°58'67215.4
2017-Nov-15 07:53N 31°06' E 122°19'714.5
2017-Nov-15 07:25N 31°09' E 122°13'614.7
2017-Nov-15 07:00N 31°13' E 122°07'714.9
2017-Nov-15 06:30N 31°15' E 121°58'714.9
2017-Nov-15 06:00N 31°17' E 121°50'714.2
2017-Nov-15 05:30N 31°19' E 121°42'611.5
2017-Nov-15 05:00N 31°22' E 121°36'1 1.1
2017-Nov-15 04:29N 31°22' E 121°36'0 0.0
2017-Nov-15 03:59N 31°22' E 121°36'0 0.0
2017-Nov-15 03:29N 31°22' E 121°36'0 0.0
2017-Nov-15 02:59N 31°22' E 121°36'0 0.0
2017-Nov-15 02:29N 31°22' E 121°36'0 0.0
2017-Nov-15 01:59N 31°22' E 121°36'0 0.0
2017-Nov-15 01:29N 31°22' E 121°36'0 0.0
2017-Nov-15 00:59N 31°22' E 121°36'0 0.0
2017-Nov-15 00:29N 31°22' E 121°36'0 0.0
2017-Nov-14 23:59N 31°22' E 121°36'0 0.0
2017-Nov-14 23:29N 31°22' E 121°36'0 0.0
2017-Nov-14 22:59N 31°22' E 121°36'0 0.0
2017-Nov-14 22:29N 31°22' E 121°36'0 0.0
2017-Nov-14 21:59N 31°22' E 121°36'0 0.0
2017-Nov-14 21:29N 31°22' E 121°36'0 0.0
2017-Nov-14 20:59N 31°22' E 121°36'0 0.0
2017-Nov-14 20:29N 31°22' E 121°36'0 0.0
2017-Nov-14 19:59N 31°22' E 121°36'0 0.0
2017-Nov-14 19:29N 31°22' E 121°36'0 0.0
2017-Nov-14 18:59N 31°22' E 121°36'0 0.0
2017-Nov-14 18:29N 31°22' E 121°36'0 0.0
2017-Nov-14 17:59N 31°22' E 121°36'0 0.0
2017-Nov-14 17:30N 31°22' E 121°36'1 1.3
2017-Nov-14 17:00N 31°22' E 121°36'3 7.0
2017-Nov-14 16:30N 31°21' E 121°40'4 9.0
2017-Nov-14 16:00N 31°19' E 121°45'510.3
2017-Nov-14 15:30N 31°17' E 121°51'510.5
2017-Nov-14 15:00N 31°15' E 121°56'510.5
2017-Nov-14 14:30N 31°14' E 122°02'511.0
2017-Nov-14 14:00N 31°12' E 122°08'814.1
2017-Nov-14 13:25N 31°07' E 122°16'  
2017-Nov-11 16:43N 34°54' E 139°26'316.6
2017-Nov-11 16:30N 34°56' E 139°29'816.7
2017-Nov-11 16:00N 35°02' E 139°36'817.0
2017-Nov-11 15:30N 35°08' E 139°44'714.6
2017-Nov-11 15:00N 35°15' E 139°46'612.7
2017-Nov-11 14:30N 35°20' E 139°42'713.4
2017-Nov-11 14:00N 35°27' E 139°41'0 0.8
2017-Nov-11 13:29N 35°27' E 139°41'0 0.0
2017-Nov-11 12:59N 35°27' E 139°41'0 0.0
2017-Nov-11 12:29N 35°27' E 139°41'0 0.0
2017-Nov-11 11:59N 35°27' E 139°41'0 0.0
2017-Nov-11 11:29N 35°27' E 139°41'0 0.0
2017-Nov-11 10:59N 35°27' E 139°41'0 0.0
2017-Nov-11 10:29N 35°27' E 139°41'0 0.0
2017-Nov-11 10:00N 35°27' E 139°41'1 2.6
2017-Nov-11 09:30N 35°26' E 139°42'3 5.4
2017-Nov-11 09:00N 35°27' E 139°46'4 8.4
2017-Nov-11 08:30N 35°29' E 139°50'6 9.6
2017-Nov-11 07:55N 35°34' E 139°48'2 3.8
2017-Nov-11 07:29N 35°36' E 139°48'0 0.1
2017-Nov-11 06:57N 35°36' E 139°48'0 0.0
2017-Nov-11 06:30N 35°36' E 139°48'0 0.0
2017-Nov-11 05:33N 35°36' E 139°48'0 0.0
2017-Nov-11 05:30N 35°36' E 139°48'0 0.0
2017-Nov-11 05:00N 35°36' E 139°48'0 0.0
2017-Nov-11 03:18N 35°36' E 139°48'0 0.0
2017-Nov-11 02:54N 35°36' E 139°48'0 0.0
2017-Nov-11 02:12N 35°36' E 139°48'0 0.0
2017-Nov-11 01:00N 35°36' E 139°48'0 0.0
2017-Nov-11 00:30N 35°36' E 139°48'0 0.0
2017-Nov-10 22:18N 35°36' E 139°48'0 0.0
2017-Nov-10 21:48N 35°36' E 139°48'0 0.0
2017-Nov-10 18:06N 35°36' E 139°48'0 0.0
2017-Nov-10 17:54N 35°36' E 139°48'0 0.0
2017-Nov-10 17:24N 35°36' E 139°48'0 0.0
2017-Nov-10 16:57N 35°36' E 139°48'0 0.0
2017-Nov-10 16:30N 35°36' E 139°48'0 0.0
2017-Nov-10 15:57N 35°36' E 139°48'0 1.0
2017-Nov-10 15:30N 35°36' E 139°47'611.1
2017-Nov-10 15:00N 35°32' E 139°52'814.9
2017-Nov-10 14:30N 35°25' E 139°47'713.6
2017-Nov-10 14:00N 35°19' E 139°44'612.8
2017-Nov-10 13:30N 35°13' E 139°47'815.8
2017-Nov-10 13:00N 35°06' E 139°43'917.4
2017-Nov-10 12:30N 35°00' E 139°35'917.8
2017-Nov-10 12:00N 34°54' E 139°27'  

Dump ship's entire track history